createdAt,value
2022-07-28T00:00:24.887Z,66.15
2022-07-28T00:01:25.063Z,66.15
2022-07-28T00:02:24.953Z,65.75
2022-07-28T00:03:24.911Z,65.75
2022-07-28T00:04:24.898Z,66.15
2022-07-28T00:05:24.884Z,65.95
2022-07-28T00:06:24.806Z,65.95
2022-07-28T00:07:24.802Z,65.75
2022-07-28T00:08:24.799Z,65.95
2022-07-28T00:09:24.773Z,66.15
2022-07-28T00:10:24.743Z,66.35
2022-07-28T00:11:24.770Z,66.45
2022-07-28T00:12:24.725Z,67.36
2022-07-28T00:13:24.726Z,67.46
2022-07-28T00:14:24.704Z,67.06
2022-07-28T00:15:24.697Z,66.55
2022-07-28T00:16:24.726Z,66.45
2022-07-28T00:17:24.676Z,66.35
2022-07-28T00:18:24.651Z,66.55
2022-07-28T00:19:24.639Z,66.55
2022-07-28T00:20:24.627Z,66.35
2022-07-28T00:21:24.635Z,66.48
2022-07-28T00:22:24.607Z,66.48
2022-07-28T00:23:24.586Z,66.35
2022-07-28T00:24:25.578Z,66.25
2022-07-28T00:25:24.553Z,66.15
2022-07-28T00:26:24.534Z,66.15
2022-07-28T00:27:24.522Z,66.35
2022-07-28T00:28:24.535Z,66.25
2022-07-28T00:29:24.512Z,66.55
2022-07-28T00:30:25.519Z,66.75
2022-07-28T00:31:24.522Z,66.35
2022-07-28T00:32:24.453Z,66.55
2022-07-28T00:33:24.459Z,66.25
2022-07-28T00:34:26.593Z,66.35
2022-07-28T00:35:30.419Z,66.25
2022-07-28T00:36:25.428Z,66.25
2022-07-28T00:37:24.399Z,66.25
2022-07-28T00:38:24.391Z,66.25
2022-07-28T00:39:24.383Z,66.96
2022-07-28T00:40:24.366Z,66.86
2022-07-28T00:41:24.375Z,66.75
2022-07-28T00:42:24.345Z,66.75
2022-07-28T00:43:24.338Z,66.45
2022-07-28T00:44:24.301Z,66.45
2022-07-28T00:45:24.294Z,66.35
2022-07-28T00:46:24.342Z,66.35
2022-07-28T00:47:24.283Z,66.45
2022-07-28T00:48:24.261Z,66.55
2022-07-28T00:49:24.287Z,66.65
2022-07-28T00:50:24.245Z,66.45
2022-07-28T00:51:24.212Z,66.75
2022-07-28T00:52:24.215Z,66.65
2022-07-28T00:53:24.201Z,66.65
2022-07-28T00:54:24.182Z,66.55
2022-07-28T00:55:24.195Z,66.75
2022-07-28T00:56:24.141Z,66.86
2022-07-28T00:57:24.149Z,66.75
2022-07-28T00:58:24.143Z,66.75
2022-07-28T00:59:24.110Z,66.86
2022-07-28T01:00:24.112Z,67.06
2022-07-28T01:01:24.164Z,67.06
2022-07-28T01:02:24.205Z,66.65
2022-07-28T01:03:24.084Z,66.65
2022-07-28T01:04:24.064Z,66.45
2022-07-28T01:05:44.069Z,66.75
2022-07-28T01:06:25.053Z,66.75
2022-07-28T01:07:24.023Z,66.96
2022-07-28T01:08:24.014Z,66.75
2022-07-28T01:09:23.994Z,66.78
2022-07-28T01:10:23.985Z,66.96
2022-07-28T01:11:23.984Z,66.86
2022-07-28T01:12:23.941Z,66.99
2022-07-28T01:13:23.994Z,66.99
2022-07-28T01:14:23.925Z,67.19
2022-07-28T01:15:23.912Z,67.39
2022-07-28T01:16:24.277Z,67.69
2022-07-28T01:17:23.872Z,67.69
2022-07-28T01:18:23.913Z,67.80
2022-07-28T01:19:23.961Z,67.80
2022-07-28T01:20:23.843Z,68.00
2022-07-28T01:21:23.852Z,67.90
2022-07-28T01:22:23.822Z,67.90
2022-07-28T01:23:23.813Z,67.80
2022-07-28T01:24:23.795Z,67.80
2022-07-28T01:25:23.825Z,67.60
2022-07-28T01:26:23.773Z,67.69
2022-07-28T01:27:23.773Z,67.60
2022-07-28T01:28:23.783Z,67.90
2022-07-28T01:29:23.738Z,67.69
2022-07-28T01:30:27.624Z,67.60
2022-07-28T01:31:23.903Z,67.90
2022-07-28T01:32:23.699Z,67.90
2022-07-28T01:33:23.699Z,67.90
2022-07-28T01:34:23.692Z,68.10
2022-07-28T01:35:23.660Z,68.20
2022-07-28T01:36:23.651Z,68.20
2022-07-28T01:37:23.609Z,68.71
2022-07-28T01:38:23.634Z,68.80
2022-07-28T01:39:23.610Z,68.91
2022-07-28T01:40:23.608Z,68.30
2022-07-28T01:41:23.578Z,68.10
2022-07-28T01:42:23.556Z,67.90
2022-07-28T01:43:23.612Z,68.00
2022-07-28T01:44:25.204Z,68.00
2022-07-28T01:45:23.533Z,68.00
2022-07-28T01:46:23.579Z,68.20
2022-07-28T01:47:23.500Z,68.00
2022-07-28T01:48:23.482Z,67.90
2022-07-28T01:49:23.557Z,67.80
2022-07-28T01:50:23.445Z,67.90
2022-07-28T01:51:23.447Z,67.90
2022-07-28T01:52:23.444Z,67.60
2022-07-28T01:53:23.420Z,67.49
2022-07-28T01:54:23.411Z,67.80
2022-07-28T01:55:23.400Z,68.60
2022-07-28T01:56:23.390Z,68.71
2022-07-28T01:57:23.367Z,68.20
2022-07-28T01:58:23.339Z,67.80
2022-07-28T01:59:23.392Z,67.90
2022-07-28T02:00:23.330Z,67.69
2022-07-28T02:01:23.370Z,67.60
2022-07-28T02:02:23.290Z,67.90
2022-07-28T02:03:23.289Z,67.19
2022-07-28T02:04:23.285Z,68.00
2022-07-28T02:05:23.301Z,67.49
2022-07-28T02:06:23.246Z,67.39
2022-07-28T02:07:23.259Z,67.49
2022-07-28T02:08:23.212Z,67.09
2022-07-28T02:09:23.219Z,67.39
2022-07-28T02:10:23.186Z,68.00
2022-07-28T02:11:23.179Z,67.90
2022-07-28T02:12:23.147Z,67.69
2022-07-28T02:13:23.181Z,67.49
2022-07-28T02:14:23.149Z,67.49
2022-07-28T02:15:23.116Z,67.60
2022-07-28T02:16:23.148Z,67.49
2022-07-28T02:17:23.468Z,67.60
2022-07-28T02:18:23.085Z,67.60
2022-07-28T02:19:23.098Z,67.69
2022-07-28T02:20:23.587Z,67.60
2022-07-28T02:21:23.060Z,67.39
2022-07-28T02:22:23.049Z,67.60
2022-07-28T02:23:23.033Z,67.80
2022-07-28T02:24:23.041Z,67.69
2022-07-28T02:25:23.027Z,67.69
2022-07-28T02:26:22.986Z,67.69
2022-07-28T02:27:22.963Z,67.29
2022-07-28T02:28:22.945Z,67.29
2022-07-28T02:29:49.245Z,67.60
2022-07-28T02:30:23.936Z,67.72
2022-07-28T02:31:22.999Z,67.83
2022-07-28T02:32:27.061Z,67.72
2022-07-28T02:33:57.970Z,68.13
2022-07-28T02:34:27.776Z,68.23
2022-07-28T02:35:22.860Z,68.43
2022-07-28T02:36:22.834Z,68.43
2022-07-28T02:37:22.847Z,68.13
2022-07-28T02:38:22.814Z,67.83
2022-07-28T02:39:22.824Z,67.93
2022-07-28T02:40:22.805Z,68.33
2022-07-28T02:41:22.775Z,68.74
2022-07-28T02:42:22.766Z,68.74
2022-07-28T02:43:22.753Z,68.54
2022-07-28T02:44:22.766Z,68.74
2022-07-28T02:45:22.742Z,68.94
2022-07-28T02:46:22.774Z,69.14
2022-07-28T02:47:22.717Z,69.34
2022-07-28T02:48:22.690Z,69.65
2022-07-28T02:49:22.734Z,69.89
2022-07-28T02:50:22.664Z,69.98
2022-07-28T02:51:22.649Z,70.09
2022-07-28T02:52:22.635Z,70.09
2022-07-28T02:53:22.635Z,70.39
2022-07-28T02:54:22.625Z,70.18
2022-07-28T02:55:22.593Z,69.78
2022-07-28T02:56:22.597Z,69.89
2022-07-28T02:57:22.565Z,70.09
2022-07-28T02:58:23.581Z,69.78
2022-07-28T02:59:22.561Z,69.68
2022-07-28T03:00:22.532Z,70.09
2022-07-28T03:01:22.565Z,70.39
2022-07-28T03:02:22.516Z,70.59
2022-07-28T03:03:22.492Z,70.79
2022-07-28T03:04:22.474Z,70.89
2022-07-28T03:05:22.573Z,71.03
2022-07-28T03:06:28.629Z,71.33
2022-07-28T03:07:23.446Z,71.53
2022-07-28T03:08:22.423Z,71.73
2022-07-28T03:09:22.415Z,71.84
2022-07-28T03:10:34.267Z,71.84
2022-07-28T03:11:23.395Z,72.08
2022-07-28T03:12:22.391Z,72.28
2022-07-28T03:13:22.375Z,72.28
2022-07-28T03:14:22.364Z,72.38
2022-07-28T03:15:22.349Z,72.58
2022-07-28T03:16:22.930Z,72.68
2022-07-28T03:17:22.480Z,72.88
2022-07-28T03:18:22.300Z,72.78
2022-07-28T03:19:22.281Z,73.09
2022-07-28T03:20:22.297Z,72.88
2022-07-28T03:21:22.287Z,72.99
2022-07-28T03:22:22.249Z,73.09
2022-07-28T03:23:22.243Z,73.09
2022-07-28T03:24:22.218Z,72.99
2022-07-28T03:25:22.220Z,72.99
2022-07-28T03:26:22.200Z,73.12
2022-07-28T03:27:22.192Z,73.12
2022-07-28T03:28:22.182Z,73.12
2022-07-28T03:29:22.272Z,73.12
2022-07-28T03:30:22.156Z,73.12
2022-07-28T03:31:22.194Z,73.22
2022-07-28T03:32:23.018Z,73.43
2022-07-28T03:33:22.133Z,73.43
2022-07-28T03:34:22.089Z,73.43
2022-07-28T03:35:22.089Z,73.43
2022-07-28T03:36:22.263Z,73.53
2022-07-28T03:37:22.408Z,73.63
2022-07-28T03:38:22.054Z,73.63
2022-07-28T03:39:22.021Z,73.63
2022-07-28T03:40:22.072Z,73.83
2022-07-28T03:41:22.077Z,73.73
2022-07-28T03:42:22.174Z,73.93
2022-07-28T03:43:22.968Z,73.93
2022-07-28T03:44:27.873Z,74.07
2022-07-28T03:45:22.971Z,74.17
2022-07-28T03:46:22.386Z,74.27
2022-07-28T03:47:22.066Z,74.27
2022-07-28T03:48:21.957Z,74.48
2022-07-28T03:49:22.099Z,74.57
2022-07-28T03:50:22.100Z,74.57
2022-07-28T03:51:21.930Z,74.57
2022-07-28T03:52:21.942Z,74.68
2022-07-28T03:53:21.870Z,74.77
2022-07-28T03:54:21.938Z,74.88
2022-07-28T03:55:21.822Z,74.98
2022-07-28T03:56:21.817Z,74.98
2022-07-28T03:57:21.809Z,75.08
2022-07-28T03:58:21.799Z,74.27
2022-07-28T03:59:21.771Z,74.27
2022-07-28T04:00:21.787Z,74.57
2022-07-28T04:01:21.844Z,74.71
2022-07-28T04:02:21.810Z,74.57
2022-07-28T04:03:36.515Z,74.48
2022-07-28T04:04:22.768Z,74.57
2022-07-28T04:05:21.892Z,74.68
2022-07-28T04:06:21.754Z,74.98
2022-07-28T04:07:21.807Z,75.42
2022-07-28T04:08:21.760Z,75.49
2022-07-28T04:09:21.760Z,75.38
2022-07-28T04:10:21.750Z,75.08
2022-07-28T04:11:21.667Z,75.08
2022-07-28T04:12:21.763Z,75.38
2022-07-28T04:13:21.720Z,75.18
2022-07-28T04:14:22.188Z,74.98
2022-07-28T04:15:21.643Z,74.88
2022-07-28T04:16:22.328Z,75.08
2022-07-28T04:17:21.579Z,75.42
2022-07-28T04:18:21.580Z,75.42
2022-07-28T04:19:21.550Z,75.22
2022-07-28T04:20:21.512Z,75.22
2022-07-28T04:21:21.485Z,75.12
2022-07-28T04:22:21.569Z,75.12
2022-07-28T04:23:21.731Z,75.32
2022-07-28T04:24:21.540Z,75.52
2022-07-28T04:25:21.542Z,75.52
2022-07-28T04:26:21.450Z,75.49
2022-07-28T04:27:21.415Z,75.62
2022-07-28T04:28:21.404Z,75.69
2022-07-28T04:29:23.435Z,75.62
2022-07-28T04:30:22.505Z,75.82
2022-07-28T04:31:21.388Z,76.13
2022-07-28T04:32:21.368Z,76.33
2022-07-28T04:33:21.369Z,76.43
2022-07-28T04:34:22.092Z,76.33
2022-07-28T04:35:21.379Z,76.33
2022-07-28T04:36:21.396Z,76.43
2022-07-28T04:37:21.402Z,76.33
2022-07-28T04:38:21.353Z,76.54
2022-07-28T04:39:21.432Z,76.33
2022-07-28T04:40:21.428Z,76.33
2022-07-28T04:41:21.344Z,76.13
2022-07-28T04:42:21.521Z,76.13
2022-07-28T04:43:23.153Z,76.23
2022-07-28T04:44:21.312Z,75.93
2022-07-28T04:45:21.331Z,75.89
2022-07-28T04:46:21.493Z,75.59
2022-07-28T04:47:21.346Z,75.38
2022-07-28T04:48:21.404Z,75.59
2022-07-28T04:49:21.196Z,75.89
2022-07-28T04:50:21.261Z,76.09
2022-07-28T04:51:21.123Z,76.20
2022-07-28T04:52:21.107Z,76.20
2022-07-28T04:53:21.103Z,75.38
2022-07-28T04:54:26.363Z,75.49
2022-07-28T04:55:22.068Z,75.79
2022-07-28T04:56:21.033Z,76.09
2022-07-28T04:57:21.036Z,76.29
2022-07-28T04:58:21.177Z,76.09
2022-07-28T05:00:12.107Z,76.09
2022-07-28T05:01:12.153Z,76.20
2022-07-28T05:02:14.795Z,75.76
2022-07-28T05:03:13.745Z,76.06
2022-07-28T05:04:12.371Z,76.16
2022-07-28T05:05:12.111Z,76.20
2022-07-28T05:06:12.013Z,76.16
2022-07-28T05:07:12.890Z,76.26
2022-07-28T05:08:11.994Z,76.16
2022-07-28T05:09:11.986Z,76.26
2022-07-28T05:10:11.991Z,76.06
2022-07-28T05:11:11.957Z,75.55
2022-07-28T05:12:11.933Z,76.06
2022-07-28T05:13:11.946Z,76.46
2022-07-28T05:14:12.596Z,76.26
2022-07-28T05:15:11.908Z,74.64
2022-07-28T05:16:11.911Z,74.44
2022-07-28T05:17:11.871Z,75.15
2022-07-28T05:18:11.912Z,75.76
2022-07-28T05:19:11.865Z,75.35
2022-07-28T05:20:11.833Z,75.35
2022-07-28T05:21:11.825Z,75.45
2022-07-28T05:22:11.829Z,75.21
2022-07-28T05:23:11.826Z,74.40
2022-07-28T05:24:12.158Z,74.20
2022-07-28T05:25:11.776Z,74.10
2022-07-28T05:26:11.773Z,73.90
2022-07-28T05:27:11.752Z,73.59
2022-07-28T05:28:11.763Z,73.15
2022-07-28T05:29:11.727Z,73.36
2022-07-28T05:30:11.693Z,72.75
2022-07-28T05:31:11.714Z,72.55
2022-07-28T05:32:17.075Z,72.75
2022-07-28T05:33:12.714Z,72.85
2022-07-28T05:34:11.977Z,72.72
2022-07-28T05:35:11.650Z,72.81
2022-07-28T05:36:11.644Z,72.41
2022-07-28T05:37:11.625Z,72.31
2022-07-28T05:38:11.614Z,71.80
2022-07-28T05:39:11.625Z,71.80
2022-07-28T05:40:11.569Z,71.60
2022-07-28T05:41:11.551Z,71.30
2022-07-28T05:42:11.565Z,71.17
2022-07-28T05:43:11.553Z,70.96
2022-07-28T05:44:11.852Z,70.76
2022-07-28T05:45:16.543Z,70.66
2022-07-28T05:46:12.585Z,70.25
2022-07-28T05:47:11.470Z,70.25
2022-07-28T05:48:11.477Z,69.24
2022-07-28T05:49:11.527Z,69.45
2022-07-28T05:50:11.456Z,69.95
2022-07-28T05:51:11.442Z,69.95
2022-07-28T05:52:11.432Z,70.02
2022-07-28T05:53:11.437Z,69.31
2022-07-28T05:54:11.808Z,69.21
2022-07-28T05:55:11.382Z,69.11
2022-07-28T05:56:11.383Z,69.11
2022-07-28T05:57:11.350Z,68.71
2022-07-28T05:58:11.352Z,68.80
2022-07-28T05:59:11.346Z,68.91
2022-07-28T06:00:11.318Z,69.11
2022-07-28T06:01:11.317Z,69.11
2022-07-28T06:02:11.305Z,69.42
2022-07-28T06:03:11.272Z,69.01
2022-07-28T06:04:26.780Z,68.71
2022-07-28T06:05:12.268Z,69.21
2022-07-28T06:06:16.180Z,69.51
2022-07-28T06:07:12.243Z,68.71
2022-07-28T06:08:11.205Z,69.21
2022-07-28T06:09:11.224Z,69.55
2022-07-28T06:10:11.186Z,69.71
2022-07-28T06:11:11.170Z,69.62
2022-07-28T06:12:11.171Z,69.45
2022-07-28T06:13:11.157Z,69.55
2022-07-28T06:14:11.448Z,70.22
2022-07-28T06:15:11.107Z,69.95
2022-07-28T06:16:13.271Z,69.65
2022-07-28T06:17:11.084Z,69.71
2022-07-28T06:18:11.078Z,69.34
2022-07-28T06:19:11.068Z,68.74
2022-07-28T06:20:11.075Z,69.04
2022-07-28T06:21:11.079Z,69.04
2022-07-28T06:22:11.018Z,68.91
2022-07-28T06:23:11.021Z,69.01
2022-07-28T06:24:11.241Z,69.01
2022-07-28T06:25:10.998Z,69.11
2022-07-28T06:26:10.988Z,69.11
2022-07-28T06:27:10.980Z,68.77
2022-07-28T06:28:10.964Z,68.07
2022-07-28T06:29:10.959Z,68.17
2022-07-28T06:30:10.929Z,68.37
2022-07-28T06:31:10.956Z,68.37
2022-07-28T06:32:10.971Z,68.47
2022-07-28T06:33:16.754Z,68.47
2022-07-28T06:34:12.288Z,68.57
2022-07-28T06:35:10.861Z,68.77
2022-07-28T06:36:10.857Z,68.67
2022-07-28T06:37:10.826Z,68.98
2022-07-28T06:38:10.806Z,68.87
2022-07-28T06:39:10.827Z,68.67
2022-07-28T06:40:10.797Z,68.27
2022-07-28T06:41:10.790Z,68.33
2022-07-28T06:42:10.757Z,68.33
2022-07-28T06:43:10.791Z,68.13
2022-07-28T06:44:12.414Z,68.24
2022-07-28T06:45:19.565Z,68.33
2022-07-28T06:46:11.720Z,68.61
2022-07-28T06:47:10.737Z,68.01
2022-07-28T06:48:10.690Z,67.97
2022-07-28T06:49:10.857Z,67.47
2022-07-28T06:50:25.847Z,66.76
2022-07-28T06:51:11.634Z,67.07
2022-07-28T06:52:10.629Z,67.07
2022-07-28T06:53:10.605Z,67.94
2022-07-28T06:54:11.607Z,68.85
2022-07-28T06:55:10.658Z,68.71
2022-07-28T06:56:13.782Z,67.40
2022-07-28T06:57:11.555Z,66.70
2022-07-28T06:58:10.543Z,66.50
2022-07-28T06:59:10.744Z,66.16
2022-07-28T07:00:10.531Z,66.06
2022-07-28T07:01:10.566Z,65.06
2022-07-28T07:02:10.495Z,64.98
2022-07-28T07:03:10.529Z,65.19
2022-07-28T07:04:10.577Z,65.52
2022-07-28T07:05:10.459Z,65.72
2022-07-28T07:06:10.474Z,66.53
2022-07-28T07:07:14.998Z,65.72
2022-07-28T07:08:11.405Z,65.22
2022-07-28T07:09:10.395Z,65.29
2022-07-28T07:10:10.419Z,65.89
2022-07-28T07:11:10.388Z,65.46
2022-07-28T07:12:10.366Z,65.86
2022-07-28T07:13:10.344Z,64.15
2022-07-28T07:14:10.334Z,64.05
2022-07-28T07:15:10.350Z,64.32
2022-07-28T07:16:10.397Z,63.54
2022-07-28T07:17:10.307Z,64.05
2022-07-28T07:18:10.304Z,64.25
2022-07-28T07:19:15.459Z,63.75
2022-07-28T07:20:11.253Z,64.35
2022-07-28T07:21:10.232Z,63.85
2022-07-28T07:22:10.245Z,63.85
2022-07-28T07:23:10.207Z,64.35
2022-07-28T07:24:10.201Z,64.95
2022-07-28T07:25:10.201Z,65.02
2022-07-28T07:26:10.185Z,64.62
2022-07-28T07:27:10.176Z,63.62
2022-07-28T07:28:10.157Z,64.12
2022-07-28T07:29:10.124Z,64.02
2022-07-28T07:30:10.139Z,64.59
2022-07-28T07:31:10.141Z,64.69
2022-07-28T07:32:11.039Z,65.06
2022-07-28T07:33:10.555Z,64.36
2022-07-28T07:34:10.074Z,63.08
2022-07-28T07:35:10.075Z,63.68
2022-07-28T07:36:10.055Z,63.85
2022-07-28T07:37:10.035Z,64.36
2022-07-28T07:38:10.014Z,63.56
2022-07-28T07:39:10.005Z,63.15
2022-07-28T07:40:10.035Z,62.75
2022-07-28T07:41:09.990Z,62.95
2022-07-28T07:42:09.972Z,63.05
2022-07-28T07:43:09.968Z,62.85
2022-07-28T07:44:09.956Z,63.73
2022-07-28T07:45:09.947Z,64.43
2022-07-28T07:46:09.969Z,63.93
2022-07-28T07:47:09.904Z,64.10
2022-07-28T07:48:09.889Z,63.19
2022-07-28T07:49:10.056Z,63.39
2022-07-28T07:50:09.884Z,62.99
2022-07-28T07:51:15.356Z,63.70
2022-07-28T07:52:10.837Z,62.06
2022-07-28T07:53:09.810Z,61.25
2022-07-28T07:54:09.985Z,61.88
2022-07-28T07:55:09.800Z,61.99
2022-07-28T07:56:09.794Z,61.58
2022-07-28T07:57:09.773Z,61.49
2022-07-28T07:58:09.769Z,62.69
2022-07-28T07:59:09.756Z,62.29
2022-07-28T08:00:28.646Z,61.99
2022-07-28T08:01:10.725Z,61.99
2022-07-28T08:02:09.887Z,60.98
2022-07-28T08:03:11.431Z,61.49
2022-07-28T08:04:09.708Z,61.29
2022-07-28T08:05:09.738Z,60.98
2022-07-28T08:06:09.673Z,60.88
2022-07-28T08:07:09.646Z,62.36
2022-07-28T08:08:09.638Z,62.26
2022-07-28T08:09:09.610Z,61.15
2022-07-28T08:10:09.609Z,61.43
2022-07-28T08:11:09.588Z,62.43
2022-07-28T08:12:09.579Z,61.50
2022-07-28T08:13:09.559Z,61.80
2022-07-28T08:14:09.550Z,60.80
2022-07-28T08:15:09.575Z,59.59
2022-07-28T08:16:09.622Z,60.10
2022-07-28T08:17:09.512Z,60.49
2022-07-28T08:18:09.498Z,60.39
2022-07-28T08:19:09.500Z,60.10
2022-07-28T08:20:09.493Z,60.29
2022-07-28T08:21:09.455Z,60.80
2022-07-28T08:22:09.465Z,62.40
2022-07-28T08:23:09.439Z,60.39
2022-07-28T08:24:09.418Z,60.49
2022-07-28T08:25:09.419Z,59.79
2022-07-28T08:26:09.420Z,59.89
2022-07-28T08:27:09.393Z,61.40
2022-07-28T08:28:09.388Z,61.27
2022-07-28T08:29:09.361Z,61.17
2022-07-28T08:30:09.401Z,61.57
2022-07-28T08:31:09.399Z,61.67
2022-07-28T08:32:09.341Z,60.94
2022-07-28T08:33:09.340Z,59.03
2022-07-28T08:34:26.398Z,58.73
2022-07-28T08:35:32.486Z,59.03
2022-07-28T08:36:10.267Z,59.44
2022-07-28T08:37:09.261Z,59.44
2022-07-28T08:38:09.259Z,57.83
2022-07-28T08:39:09.239Z,58.40
2022-07-28T08:40:09.225Z,58.20
2022-07-28T08:41:09.209Z,57.80
2022-07-28T08:42:09.203Z,58.11
2022-07-28T08:43:09.183Z,58.61
2022-07-28T08:44:09.173Z,57.57
2022-07-28T08:45:09.160Z,57.78
2022-07-28T08:46:09.172Z,57.87
2022-07-28T08:47:09.119Z,57.37
2022-07-28T08:48:09.914Z,57.07
2022-07-28T08:49:09.158Z,56.57
2022-07-28T08:50:09.117Z,57.07
2022-07-28T08:51:09.091Z,57.37
2022-07-28T08:52:09.076Z,56.87
2022-07-28T08:53:09.053Z,57.00
2022-07-28T08:54:09.040Z,57.28
2022-07-28T08:55:09.039Z,57.68
2022-07-28T08:56:09.021Z,57.07
2022-07-28T08:57:08.978Z,56.98
2022-07-28T08:58:08.979Z,57.75
2022-07-28T08:59:08.979Z,57.45
2022-07-28T09:00:08.981Z,56.85
2022-07-28T09:01:08.959Z,56.95
2022-07-28T09:02:09.062Z,56.55
2022-07-28T09:03:09.033Z,56.45
2022-07-28T09:04:08.938Z,55.65
2022-07-28T09:05:08.905Z,55.94
2022-07-28T09:06:08.899Z,56.35
2022-07-28T09:07:08.876Z,56.52
2022-07-28T09:08:08.856Z,54.92
2022-07-28T09:09:08.856Z,55.02
2022-07-28T09:10:08.846Z,54.72
2022-07-28T09:11:08.857Z,54.82
2022-07-28T09:12:08.817Z,55.69
2022-07-28T09:13:08.788Z,55.99
2022-07-28T09:14:08.777Z,55.09
2022-07-28T09:15:08.783Z,53.49
2022-07-28T09:16:08.801Z,53.39
2022-07-28T09:17:08.724Z,53.82
2022-07-28T09:18:08.737Z,54.22
2022-07-28T09:19:08.718Z,56.12
2022-07-28T09:20:11.091Z,55.79
2022-07-28T09:21:08.709Z,55.49
2022-07-28T09:22:08.655Z,53.09
2022-07-28T09:23:42.755Z,52.99
2022-07-28T09:24:09.653Z,52.99
2022-07-28T09:25:08.647Z,52.99
2022-07-28T09:26:11.433Z,53.89
2022-07-28T09:27:08.630Z,52.69
2022-07-28T09:28:08.596Z,51.89
2022-07-28T09:29:08.588Z,50.77
2022-07-28T09:30:08.577Z,50.67
2022-07-28T09:31:08.582Z,50.37
2022-07-28T09:32:08.612Z,49.77
2022-07-28T09:33:08.514Z,48.97
2022-07-28T09:34:08.525Z,49.67
2022-07-28T09:35:08.592Z,50.97
2022-07-28T09:36:08.483Z,51.67
2022-07-28T09:37:08.488Z,51.45
2022-07-28T09:38:08.457Z,52.04
2022-07-28T09:39:08.465Z,49.74
2022-07-28T09:40:10.583Z,50.45
2022-07-28T09:41:08.425Z,49.95
2022-07-28T09:42:08.407Z,49.55
2022-07-28T09:43:08.398Z,49.05
2022-07-28T09:44:08.375Z,49.44
2022-07-28T09:45:24.839Z,50.24
2022-07-28T09:46:09.592Z,51.15
2022-07-28T09:47:08.537Z,49.35
2022-07-28T09:48:08.505Z,49.15
2022-07-28T09:49:08.583Z,49.25
2022-07-28T09:50:08.488Z,48.55
2022-07-28T09:51:08.316Z,48.57
2022-07-28T09:52:08.265Z,49.37
2022-07-28T09:53:08.269Z,49.67
2022-07-28T09:54:08.257Z,51.37
2022-07-28T09:55:08.237Z,51.27
2022-07-28T09:56:08.386Z,51.37
2022-07-28T09:57:08.283Z,50.74
2022-07-28T09:58:08.182Z,48.75
2022-07-28T09:59:08.517Z,48.97
2022-07-28T10:00:08.153Z,49.87
2022-07-28T10:01:08.336Z,50.04
2022-07-28T10:02:08.244Z,50.15
2022-07-28T10:03:08.179Z,50.65
2022-07-28T10:04:08.103Z,50.24
2022-07-28T10:05:08.117Z,49.72
2022-07-28T10:06:08.132Z,49.92
2022-07-28T10:07:08.093Z,48.52
2022-07-28T10:08:08.063Z,49.12
2022-07-28T10:09:08.126Z,49.25
2022-07-28T10:10:08.038Z,49.62
2022-07-28T10:11:08.023Z,49.02
2022-07-28T10:12:08.035Z,48.63
2022-07-28T10:13:07.992Z,48.72
2022-07-28T10:14:07.984Z,49.22
2022-07-28T10:15:07.980Z,49.22
2022-07-28T10:16:07.998Z,49.32
2022-07-28T10:17:07.955Z,50.12
2022-07-28T10:18:07.932Z,49.40
2022-07-28T10:19:07.919Z,49.40
2022-07-28T10:20:07.907Z,49.27
2022-07-28T10:21:07.905Z,49.08
2022-07-28T10:22:07.893Z,49.08
2022-07-28T10:23:07.911Z,49.68
2022-07-28T10:24:07.853Z,49.08
2022-07-28T10:25:07.886Z,49.48
2022-07-28T10:26:12.928Z,49.08
2022-07-28T10:27:08.809Z,48.38
2022-07-28T10:28:07.795Z,47.68
2022-07-28T10:29:07.787Z,48.48
2022-07-28T10:30:07.802Z,48.68
2022-07-28T10:31:07.785Z,48.08
2022-07-28T10:32:07.759Z,47.90
2022-07-28T10:33:07.743Z,47.71
2022-07-28T10:34:07.738Z,48.30
2022-07-28T10:35:07.721Z,48.40
2022-07-28T10:36:07.711Z,48.30
2022-07-28T10:37:07.705Z,48.00
2022-07-28T10:38:07.682Z,48.20
2022-07-28T10:39:07.681Z,49.40
2022-07-28T10:40:10.292Z,49.20
2022-07-28T10:41:07.622Z,48.97
2022-07-28T10:42:07.632Z,48.18
2022-07-28T10:43:07.609Z,49.05
2022-07-28T10:44:07.593Z,48.55
2022-07-28T10:45:07.612Z,47.96
2022-07-28T10:46:10.769Z,48.05
2022-07-28T10:47:08.666Z,46.96
2022-07-28T10:48:07.949Z,48.05
2022-07-28T10:49:08.416Z,48.35
2022-07-28T10:50:07.529Z,47.74
2022-07-28T10:51:07.551Z,48.63
2022-07-28T10:52:15.444Z,48.93
2022-07-28T10:53:08.512Z,47.53
2022-07-28T10:54:07.483Z,47.56
2022-07-28T10:55:07.494Z,48.35
2022-07-28T10:56:07.472Z,47.96
2022-07-28T10:57:07.429Z,49.05
2022-07-28T10:58:11.381Z,49.45
2022-07-28T10:59:07.404Z,49.23
2022-07-28T11:00:24.500Z,49.73
2022-07-28T11:01:10.679Z,47.83
2022-07-28T11:02:08.548Z,47.83
2022-07-28T11:03:13.534Z,47.53
2022-07-28T11:04:08.352Z,47.11
2022-07-28T11:05:07.330Z,47.03
2022-07-28T11:06:07.321Z,46.94
2022-07-28T11:07:07.309Z,46.64
2022-07-28T11:08:07.278Z,47.16
2022-07-28T11:09:07.283Z,47.45
2022-07-28T11:10:07.259Z,47.93
2022-07-28T11:11:08.744Z,47.83
2022-07-28T11:12:09.921Z,47.74
2022-07-28T11:13:07.327Z,47.53
2022-07-28T11:14:08.224Z,47.33
2022-07-28T11:15:15.898Z,47.14
2022-07-28T11:16:08.201Z,47.24
2022-07-28T11:17:10.428Z,48.41
2022-07-28T11:18:07.150Z,47.81
2022-07-28T11:19:07.975Z,47.51
2022-07-28T11:20:24.884Z,46.79
2022-07-28T11:21:08.581Z,46.99
2022-07-28T11:22:07.123Z,47.29
2022-07-28T11:23:07.116Z,47.59
2022-07-28T11:24:07.076Z,46.89
2022-07-28T11:25:19.880Z,46.20
2022-07-28T11:26:08.068Z,46.59
2022-07-28T11:27:07.047Z,46.59
2022-07-28T11:28:07.059Z,47.19
2022-07-28T11:29:07.009Z,46.59
2022-07-28T11:30:07.013Z,46.79
2022-07-28T11:31:07.043Z,47.19
2022-07-28T11:32:06.993Z,46.79
2022-07-28T11:33:06.989Z,45.70
2022-07-28T11:34:06.947Z,46.39
2022-07-28T11:35:06.942Z,45.82
2022-07-28T11:36:06.919Z,46.42
2022-07-28T11:37:06.933Z,46.72
2022-07-28T11:38:06.907Z,47.49
2022-07-28T11:39:06.902Z,47.39
2022-07-28T11:40:06.876Z,47.99
2022-07-28T11:41:06.858Z,46.59
2022-07-28T11:42:06.849Z,47.47
2022-07-28T11:43:06.874Z,46.97
2022-07-28T11:44:06.891Z,47.07
2022-07-28T11:45:06.819Z,48.56
2022-07-28T11:46:09.667Z,48.56
2022-07-28T11:47:06.778Z,47.37
2022-07-28T11:48:06.806Z,46.77
2022-07-28T11:49:06.815Z,46.77
2022-07-28T11:50:07.747Z,46.47
2022-07-28T11:51:06.829Z,46.39
2022-07-28T11:52:06.710Z,46.30
2022-07-28T11:53:06.697Z,47.19
2022-07-28T11:54:06.715Z,46.99
2022-07-28T11:55:06.681Z,46.89
2022-07-28T11:56:06.707Z,46.69
2022-07-28T11:57:06.660Z,45.50
2022-07-28T11:58:06.626Z,46.57
2022-07-28T11:59:06.642Z,46.17
2022-07-28T12:00:06.649Z,47.17
2022-07-28T12:01:06.603Z,46.08
2022-07-28T12:02:07.622Z,46.75
2022-07-28T12:03:06.570Z,45.65
2022-07-28T12:04:06.582Z,45.45
2022-07-28T12:05:06.580Z,44.85
2022-07-28T12:06:06.541Z,45.08
2022-07-28T12:07:06.524Z,45.18
2022-07-28T12:08:06.532Z,45.85
2022-07-28T12:09:06.502Z,45.75
2022-07-28T12:10:06.469Z,45.75
2022-07-28T12:11:06.457Z,45.75
2022-07-28T12:12:06.454Z,44.93
2022-07-28T12:13:06.437Z,45.03
2022-07-28T12:14:06.461Z,45.26
2022-07-28T12:15:07.398Z,45.53
2022-07-28T12:16:06.387Z,45.55
2022-07-28T12:17:06.429Z,44.66
2022-07-28T12:18:06.366Z,44.66
2022-07-28T12:19:06.347Z,45.06
2022-07-28T12:20:06.347Z,45.15
2022-07-28T12:21:07.326Z,44.96
2022-07-28T12:22:06.324Z,44.56
2022-07-28T12:23:06.311Z,44.76
2022-07-28T12:24:06.277Z,44.85
2022-07-28T12:25:06.309Z,44.06
2022-07-28T12:26:07.289Z,44.36
2022-07-28T12:27:06.248Z,44.76
2022-07-28T12:28:06.248Z,45.36
2022-07-28T12:29:08.424Z,44.66
2022-07-28T12:30:07.223Z,45.15
2022-07-28T12:31:06.206Z,44.56
2022-07-28T12:32:06.425Z,44.56
2022-07-28T12:33:06.189Z,45.15
2022-07-28T12:34:06.156Z,45.55
2022-07-28T12:35:06.159Z,45.26
2022-07-28T12:36:06.175Z,44.96
2022-07-28T12:37:06.135Z,45.95
2022-07-28T12:38:06.127Z,44.64
2022-07-28T12:39:16.012Z,43.54
2022-07-28T12:40:06.062Z,44.22
2022-07-28T12:41:08.774Z,43.01
2022-07-28T12:42:07.744Z,43.60
2022-07-28T12:43:06.057Z,43.01
2022-07-28T12:44:06.139Z,42.41
2022-07-28T12:45:06.051Z,43.20
2022-07-28T12:46:06.824Z,43.50
2022-07-28T12:47:06.004Z,42.91
2022-07-28T12:48:05.971Z,43.10
2022-07-28T12:49:06.064Z,42.03
2022-07-28T12:50:07.192Z,42.01
2022-07-28T12:51:05.935Z,42.51
2022-07-28T12:52:05.975Z,41.63
2022-07-28T12:53:05.925Z,42.33